createdAt,value
2022-11-13T00:02:34.703Z,4.56
2022-11-13T00:05:20.186Z,4.52
2022-11-13T00:08:05.466Z,4.50
2022-11-13T00:10:50.762Z,4.57
2022-11-13T00:13:36.468Z,4.50
2022-11-13T00:16:21.858Z,4.49
2022-11-13T00:19:06.899Z,4.39
2022-11-13T00:21:52.282Z,4.36
2022-11-13T00:24:37.638Z,4.31
2022-11-13T00:27:22.982Z,4.30
2022-11-13T00:30:08.848Z,4.27
2022-11-13T00:32:54.220Z,4.32
2022-11-13T00:35:39.477Z,4.24
2022-11-13T00:38:24.738Z,4.28
2022-11-13T00:41:10.004Z,4.27
2022-11-13T00:43:55.259Z,4.23
2022-11-13T00:46:40.549Z,4.31
2022-11-13T00:49:25.906Z,4.13
2022-11-13T00:52:11.255Z,4.29
2022-11-13T00:54:56.584Z,4.19
2022-11-13T00:57:42.018Z,4.16
2022-11-13T01:00:27.332Z,4.20
2022-11-13T01:03:13.367Z,4.12
2022-11-13T01:05:58.497Z,4.17
2022-11-13T01:08:44.169Z,4.23
2022-11-13T01:11:30.636Z,4.06
2022-11-13T01:14:16.078Z,4.10
2022-11-13T01:17:01.435Z,4.24
2022-11-13T01:19:46.792Z,4.15
2022-11-13T01:22:32.409Z,4.14
2022-11-13T01:25:18.431Z,4.08
2022-11-13T01:28:03.904Z,4.09
2022-11-13T01:30:49.353Z,3.96
2022-11-13T01:33:34.925Z,4.01
2022-11-13T01:36:23.340Z,4.12
2022-11-13T01:39:11.164Z,4.14
2022-11-13T01:41:56.382Z,4.01
2022-11-13T01:44:50.644Z,3.90
2022-11-13T01:47:36.025Z,3.90
2022-11-13T01:50:21.127Z,3.85
2022-11-13T01:53:07.377Z,3.89
2022-11-13T01:55:52.895Z,3.80
2022-11-13T01:58:39.087Z,3.85
2022-11-13T02:01:24.808Z,4.05
2022-11-13T02:04:10.608Z,4.12
2022-11-13T02:06:59.511Z,4.04
2022-11-13T02:09:48.181Z,4.05
2022-11-13T02:12:42.070Z,3.95
2022-11-13T02:15:31.920Z,3.87
2022-11-13T02:18:21.592Z,3.79
2022-11-13T02:21:37.516Z,3.78
2022-11-13T02:24:33.347Z,3.76
2022-11-13T02:27:41.442Z,3.86
2022-11-13T02:30:31.625Z,3.71
2022-11-13T02:33:32.102Z,3.78
2022-11-13T02:36:20.271Z,3.93
2022-11-13T02:39:09.576Z,3.93
2022-11-13T02:41:55.099Z,3.85
2022-11-13T02:44:40.228Z,3.77
2022-11-13T02:47:25.630Z,3.80
2022-11-13T02:50:11.973Z,3.78
2022-11-13T02:52:57.765Z,3.79
2022-11-13T02:55:43.212Z,3.82
2022-11-13T02:58:29.254Z,3.91
2022-11-13T03:01:14.846Z,3.80
2022-11-13T03:04:00.615Z,3.77
2022-11-13T03:06:45.916Z,3.65
2022-11-13T03:09:31.116Z,3.75
2022-11-13T03:12:16.430Z,3.80
2022-11-13T03:15:01.932Z,3.74
2022-11-13T03:17:47.133Z,3.74
2022-11-13T03:20:33.730Z,3.56
2022-11-13T03:23:18.974Z,3.61
2022-11-13T03:26:06.762Z,3.73
2022-11-13T03:28:51.949Z,3.68
2022-11-13T03:31:37.448Z,3.55
2022-11-13T03:34:22.610Z,3.61
2022-11-13T03:37:08.089Z,3.57
2022-11-13T03:39:53.566Z,3.64
2022-11-13T03:42:38.955Z,3.56
2022-11-13T03:45:24.233Z,3.53
2022-11-13T03:48:09.569Z,3.61
2022-11-13T03:50:55.944Z,3.61
2022-11-13T03:53:41.211Z,3.50
2022-11-13T03:56:26.544Z,3.42
2022-11-13T03:59:11.607Z,3.53
2022-11-13T04:01:57.044Z,3.62
2022-11-13T04:04:42.232Z,3.52
2022-11-13T04:07:27.860Z,3.80
2022-11-13T04:10:14.074Z,3.58
2022-11-13T04:12:59.051Z,3.54
2022-11-13T04:15:44.588Z,3.59
2022-11-13T04:18:30.231Z,3.42
2022-11-13T04:21:15.855Z,3.55
2022-11-13T04:24:01.158Z,3.40
2022-11-13T04:26:46.528Z,3.34
2022-11-13T04:29:32.000Z,3.25
2022-11-13T04:32:17.327Z,3.23
2022-11-13T04:35:03.700Z,3.14
2022-11-13T04:37:48.688Z,3.09
2022-11-13T04:40:34.035Z,3.00
2022-11-13T04:43:19.522Z,2.89
2022-11-13T04:46:04.650Z,2.90
2022-11-13T04:48:50.119Z,2.84
2022-11-13T04:51:35.571Z,2.84
2022-11-13T04:54:25.745Z,2.84
2022-11-13T04:57:13.803Z,2.70
2022-11-13T04:59:59.095Z,2.77
2022-11-13T05:02:44.370Z,2.80
2022-11-13T05:05:30.035Z,2.83
2022-11-13T05:08:14.953Z,3.13
2022-11-13T05:11:04.140Z,3.26
2022-11-13T05:13:49.706Z,3.25
2022-11-13T05:16:36.549Z,3.47
2022-11-13T05:19:22.012Z,3.68
2022-11-13T05:22:07.778Z,3.52
2022-11-13T05:24:52.924Z,3.28
2022-11-13T05:27:38.301Z,3.27
2022-11-13T05:30:23.886Z,3.05
2022-11-13T05:33:08.992Z,3.09
2022-11-13T05:35:54.384Z,3.12
2022-11-13T05:38:40.625Z,3.08
2022-11-13T05:41:26.544Z,2.93
2022-11-13T05:44:11.664Z,3.10
2022-11-13T05:46:57.153Z,2.89
2022-11-13T05:49:42.498Z,2.92
2022-11-13T05:52:27.710Z,2.94
2022-11-13T05:55:13.011Z,2.97
2022-11-13T05:57:59.160Z,2.87
2022-11-13T06:00:44.222Z,3.01
2022-11-13T06:03:29.520Z,2.95
2022-11-13T06:06:18.438Z,3.08
2022-11-13T06:09:06.317Z,3.06
2022-11-13T06:11:51.949Z,3.00
2022-11-13T06:14:37.200Z,3.00
2022-11-13T06:17:22.415Z,2.93
2022-11-13T06:20:08.362Z,3.02
2022-11-13T06:22:53.792Z,2.97
2022-11-13T06:25:41.950Z,3.00
2022-11-13T06:28:27.454Z,2.79
2022-11-13T06:31:24.361Z,2.87
2022-11-13T06:34:09.822Z,2.87
2022-11-13T06:36:55.180Z,2.91
2022-11-13T06:39:40.416Z,2.93
2022-11-13T06:42:25.684Z,3.03
2022-11-13T06:45:11.415Z,2.98
2022-11-13T06:47:56.759Z,3.11
2022-11-13T06:50:47.212Z,3.16
2022-11-13T06:53:33.793Z,3.30
2022-11-13T06:56:19.696Z,3.65
2022-11-13T06:59:08.417Z,3.75
2022-11-13T07:01:53.793Z,4.63
2022-11-13T07:04:39.036Z,4.92
2022-11-13T07:07:24.509Z,4.78
2022-11-13T07:10:10.435Z,5.44
2022-11-13T07:12:55.396Z,5.28
2022-11-13T07:15:40.549Z,5.86
2022-11-13T07:18:26.332Z,5.76
2022-11-13T07:21:13.212Z,6.09
2022-11-13T07:23:58.758Z,6.35
2022-11-13T07:26:44.042Z,6.14
2022-11-13T07:29:29.549Z,6.18
2022-11-13T07:32:15.232Z,6.14
2022-11-13T07:35:01.231Z,6.35
2022-11-13T07:37:46.806Z,6.52
2022-11-13T07:40:32.521Z,6.91
2022-11-13T07:43:18.424Z,7.11
2022-11-13T07:46:03.965Z,7.85
2022-11-13T07:48:52.950Z,7.28
2022-11-13T07:51:38.607Z,7.52
2022-11-13T07:54:24.061Z,7.82
2022-11-13T07:57:09.834Z,7.66
2022-11-13T07:59:55.387Z,7.70
2022-11-13T08:02:41.277Z,8.11
2022-11-13T08:05:27.283Z,7.53
2022-11-13T08:08:14.882Z,7.58
2022-11-13T08:11:07.896Z,7.50
2022-11-13T08:13:53.364Z,7.51
2022-11-13T08:16:39.321Z,7.22
2022-11-13T08:19:25.156Z,7.30
2022-11-13T08:22:10.556Z,6.96
2022-11-13T08:24:56.134Z,6.97
2022-11-13T08:27:41.998Z,6.91
2022-11-13T08:30:29.306Z,6.80
2022-11-13T08:33:15.094Z,6.83
2022-11-13T08:36:01.058Z,6.63
2022-11-13T08:38:48.849Z,6.70
2022-11-13T08:41:34.283Z,6.90
2022-11-13T08:44:19.789Z,6.72
2022-11-13T08:47:05.936Z,6.83
2022-11-13T08:49:51.689Z,6.87
2022-11-13T08:52:37.587Z,6.99
2022-11-13T08:55:23.621Z,6.90
2022-11-13T08:58:09.280Z,6.97
2022-11-13T09:01:00.750Z,6.91
2022-11-13T09:03:49.647Z,6.90
2022-11-13T09:06:35.494Z,7.12
2022-11-13T09:09:22.207Z,7.20
2022-11-13T09:12:08.367Z,7.26
2022-11-13T09:14:54.201Z,7.19
2022-11-13T09:17:39.877Z,7.21
2022-11-13T09:20:27.012Z,7.51
2022-11-13T09:23:12.997Z,7.61
2022-11-13T09:26:02.431Z,7.72
2022-11-13T09:28:48.308Z,7.68
2022-11-13T09:31:34.434Z,7.92
2022-11-13T09:34:20.364Z,8.10
2022-11-13T09:37:06.078Z,8.12
2022-11-13T09:39:51.740Z,8.35
2022-11-13T09:42:40.225Z,8.22
2022-11-13T09:45:26.016Z,8.38
2022-11-13T09:48:22.699Z,8.74
2022-11-13T09:51:16.536Z,8.72
2022-11-13T09:54:06.134Z,9.08
2022-11-13T09:57:24.600Z,9.06
2022-11-13T10:00:15.598Z,8.97
2022-11-13T10:03:13.056Z,9.28
2022-11-13T10:06:18.963Z,9.81
2022-11-13T10:09:24.968Z,9.60
2022-11-13T10:12:14.150Z,9.92
2022-11-13T10:15:02.776Z,9.84
2022-11-13T10:18:17.703Z,10.15
2022-11-13T10:21:38.822Z,10.22
2022-11-13T10:24:43.417Z,10.45
2022-11-13T10:27:28.996Z,10.91
2022-11-13T10:30:19.305Z,11.16
2022-11-13T10:33:08.503Z,10.70
2022-11-13T10:36:04.949Z,10.83
2022-11-13T10:39:02.624Z,11.08
2022-11-13T10:41:50.652Z,10.77
2022-11-13T10:44:36.229Z,11.09
2022-11-13T10:48:02.027Z,11.17
2022-11-13T10:50:34.662Z,11.14
2022-11-13T10:53:21.033Z,11.30
2022-11-13T10:56:36.489Z,11.48
2022-11-13T10:59:22.129Z,11.58
2022-11-13T11:02:25.810Z,11.51
2022-11-13T11:05:23.115Z,11.62
2022-11-13T11:08:15.036Z,11.64
2022-11-13T11:11:21.034Z,11.55
2022-11-13T11:14:45.255Z,11.98
2022-11-13T11:17:54.098Z,12.29
2022-11-13T11:20:43.017Z,12.24
2022-11-13T11:23:43.804Z,12.29
2022-11-13T11:26:51.695Z,12.69
2022-11-13T11:29:45.167Z,12.54
2022-11-13T11:32:49.304Z,12.89
2022-11-13T11:35:40.550Z,12.82
2022-11-13T11:39:15.859Z,13.09
2022-11-13T11:42:26.652Z,13.05
2022-11-13T11:45:20.729Z,13.10
2022-11-13T11:48:14.510Z,12.77
2022-11-13T11:51:06.116Z,13.14
2022-11-13T11:54:03.092Z,13.06
2022-11-13T11:57:04.967Z,13.45
2022-11-13T12:00:18.959Z,13.27
2022-11-13T12:03:32.007Z,13.38
2022-11-13T12:06:56.602Z,13.32
2022-11-13T12:10:25.896Z,13.47
2022-11-13T12:13:27.415Z,13.52
2022-11-13T12:16:32.494Z,13.61
2022-11-13T12:19:32.573Z,13.52
2022-11-13T12:22:43.733Z,13.46
2022-11-13T12:25:54.410Z,13.85
2022-11-13T12:28:50.638Z,13.90
2022-11-13T12:31:39.510Z,13.69
2022-11-13T12:34:36.548Z,14.40
2022-11-13T12:37:48.176Z,14.07
2022-11-13T12:40:48.678Z,13.70
2022-11-13T12:43:49.550Z,13.93
2022-11-13T12:46:42.370Z,13.94
2022-11-13T12:49:33.807Z,14.28
2022-11-13T12:52:24.198Z,14.49
2022-11-13T12:55:27.034Z,13.88
2022-11-13T12:58:31.590Z,14.09
2022-11-13T13:01:20.029Z,14.18
2022-11-13T13:04:26.959Z,14.24
2022-11-13T13:07:31.589Z,14.02
2022-11-13T13:10:23.742Z,14.05
2022-11-13T13:13:45.048Z,14.10
2022-11-13T13:16:30.531Z,14.11
2022-11-13T13:19:29.568Z,13.93
2022-11-13T13:22:34.091Z,14.09
2022-11-13T13:25:30.255Z,14.15
2022-11-13T13:28:19.955Z,13.89
2022-11-13T13:31:51.140Z,14.02
2022-11-13T13:34:55.176Z,14.27
2022-11-13T13:37:50.949Z,14.08
2022-11-13T13:41:14.593Z,14.09
2022-11-13T13:44:21.849Z,14.19
2022-11-13T13:47:18.430Z,14.05
2022-11-13T13:50:06.872Z,13.98
2022-11-13T13:52:56.011Z,13.92
2022-11-13T13:55:48.971Z,14.02
2022-11-13T13:58:37.274Z,13.83
2022-11-13T14:01:31.080Z,13.75
2022-11-13T14:04:22.127Z,13.49
2022-11-13T14:07:21.985Z,13.38
2022-11-13T14:10:23.809Z,13.43
2022-11-13T14:13:13.614Z,13.23
2022-11-13T14:16:04.653Z,13.30
2022-11-13T14:18:50.443Z,13.31
2022-11-13T14:21:36.266Z,13.31
2022-11-13T14:24:26.138Z,13.06
2022-11-13T14:27:15.924Z,12.86
2022-11-13T14:30:03.316Z,12.97
2022-11-13T14:32:51.801Z,12.92
2022-11-13T14:35:39.444Z,13.01
2022-11-13T14:38:30.446Z,13.20
2022-11-13T14:41:38.782Z,13.26
2022-11-13T14:44:35.358Z,13.32
2022-11-13T14:47:30.282Z,13.00
2022-11-13T14:50:46.626Z,12.98
2022-11-13T14:53:37.185Z,12.83
2022-11-13T14:56:32.783Z,12.84
2022-11-13T14:59:27.582Z,12.70
2022-11-13T15:02:14.013Z,12.69
2022-11-13T15:04:59.875Z,12.63
2022-11-13T15:07:46.159Z,12.40
2022-11-13T15:10:31.940Z,12.34
2022-11-13T15:13:18.446Z,12.43
2022-11-13T15:16:04.288Z,12.34
2022-11-13T15:18:58.175Z,12.23
2022-11-13T15:21:51.023Z,11.97
2022-11-13T15:24:49.849Z,11.93
2022-11-13T15:27:40.337Z,11.98
2022-11-13T15:30:30.326Z,11.79
2022-11-13T15:33:17.128Z,11.57
2022-11-13T15:36:02.701Z,11.41
2022-11-13T15:38:48.661Z,11.28
2022-11-13T15:41:34.817Z,11.19
2022-11-13T15:44:20.720Z,10.95
2022-11-13T15:47:27.710Z,10.91
2022-11-13T15:50:15.162Z,11.26
2022-11-13T15:53:05.388Z,10.93
2022-11-13T15:55:51.309Z,10.81
2022-11-13T15:58:37.363Z,10.81
2022-11-13T16:01:23.628Z,10.79
2022-11-13T16:04:09.667Z,10.54
2022-11-13T16:06:55.708Z,10.41
2022-11-13T16:09:41.166Z,10.27
2022-11-13T16:12:26.664Z,10.14
2022-11-13T16:15:16.996Z,10.05
2022-11-13T16:18:02.925Z,10.01
2022-11-13T16:20:48.313Z,10.40
2022-11-13T16:23:34.128Z,10.04
2022-11-13T16:26:22.339Z,9.97
2022-11-13T16:29:20.128Z,9.89
2022-11-13T16:32:05.976Z,9.98
2022-11-13T16:34:51.745Z,9.95
2022-11-13T16:37:37.070Z,9.99
2022-11-13T16:40:26.109Z,10.11
2022-11-13T16:43:12.222Z,10.01
2022-11-13T16:46:00.541Z,9.81
2022-11-13T16:48:47.618Z,9.52
2022-11-13T16:51:33.012Z,9.72
2022-11-13T16:54:18.749Z,9.71
2022-11-13T16:57:04.469Z,9.58
2022-11-13T16:59:50.108Z,9.53
2022-11-13T17:02:36.083Z,9.54
2022-11-13T17:05:23.554Z,9.36
2022-11-13T17:08:12.583Z,9.20
2022-11-13T17:10:58.858Z,9.25
2022-11-13T17:13:49.602Z,9.73
2022-11-13T17:16:34.964Z,9.92
2022-11-13T17:19:20.539Z,9.51
2022-11-13T17:22:06.504Z,9.73
2022-11-13T17:24:52.286Z,9.74
2022-11-13T17:27:37.778Z,9.97
2022-11-13T17:30:23.857Z,9.87
2022-11-13T17:33:09.691Z,10.18
2022-11-13T17:35:56.227Z,10.02
2022-11-13T17:38:41.884Z,9.78
2022-11-13T17:41:28.177Z,9.79
2022-11-13T17:44:13.803Z,9.83
2022-11-13T17:46:59.571Z,9.82
2022-11-13T17:49:46.065Z,9.79
2022-11-13T17:52:31.542Z,9.57
2022-11-13T17:55:17.554Z,9.57
2022-11-13T17:58:03.256Z,9.28
2022-11-13T18:00:49.511Z,9.35
2022-11-13T18:03:35.578Z,9.55
2022-11-13T18:06:21.609Z,9.27
2022-11-13T18:09:07.511Z,9.00
2022-11-13T18:11:53.380Z,8.79
2022-11-13T18:14:38.856Z,8.86
2022-11-13T18:17:25.397Z,8.99
2022-11-13T18:20:11.421Z,9.19
2022-11-13T18:22:57.356Z,8.97
2022-11-13T18:25:43.042Z,8.93
2022-11-13T18:28:28.718Z,8.74
2022-11-13T18:31:17.140Z,8.48
2022-11-13T18:34:04.780Z,8.36
2022-11-13T18:36:50.824Z,8.21
2022-11-13T18:39:36.303Z,8.04
2022-11-13T18:42:21.963Z,8.12
2022-11-13T18:45:08.632Z,8.14
2022-11-13T18:47:54.147Z,8.05
2022-11-13T18:50:39.825Z,8.03
2022-11-13T18:53:26.289Z,7.81
2022-11-13T18:56:15.390Z,7.85
2022-11-13T18:59:01.175Z,7.67
2022-11-13T19:01:47.180Z,7.67
2022-11-13T19:04:34.699Z,7.66
2022-11-13T19:07:21.164Z,7.55
2022-11-13T19:10:06.940Z,7.67
2022-11-13T19:12:52.552Z,7.66
2022-11-13T19:15:39.349Z,7.45
2022-11-13T19:18:25.127Z,7.56
2022-11-13T19:21:16.225Z,7.42
2022-11-13T19:24:02.890Z,7.40
2022-11-13T19:26:48.584Z,7.41
2022-11-13T19:29:34.283Z,7.45
2022-11-13T19:32:19.869Z,7.55
2022-11-13T19:35:05.808Z,7.40
2022-11-13T19:37:57.010Z,7.56
2022-11-13T19:40:51.963Z,8.02
2022-11-13T19:43:40.462Z,7.98
2022-11-13T19:46:26.261Z,8.03
2022-11-13T19:49:11.859Z,8.01
2022-11-13T19:51:57.484Z,7.92
2022-11-13T19:54:43.052Z,7.85
2022-11-13T19:57:28.757Z,7.81
2022-11-13T20:00:15.194Z,7.90
2022-11-13T20:03:03.838Z,7.78
2022-11-13T20:05:54.522Z,7.95
2022-11-13T20:08:40.863Z,7.65
2022-11-13T20:11:27.229Z,7.79
2022-11-13T20:14:13.257Z,7.68
2022-11-13T20:16:58.903Z,8.04
2022-11-13T20:19:44.387Z,7.60
2022-11-13T20:22:29.738Z,7.65
2022-11-13T20:25:15.575Z,7.75
2022-11-13T20:28:01.279Z,7.57
2022-11-13T20:30:47.438Z,7.38
2022-11-13T20:33:34.964Z,7.53
2022-11-13T20:36:21.345Z,7.56
2022-11-13T20:39:09.278Z,7.54
2022-11-13T20:41:54.944Z,7.57
2022-11-13T20:44:40.566Z,7.47
2022-11-13T20:47:26.780Z,7.42
2022-11-13T20:50:12.209Z,7.50
2022-11-13T20:52:57.642Z,7.60
2022-11-13T20:55:43.258Z,7.57
2022-11-13T20:58:29.792Z,7.42
2022-11-13T21:01:22.287Z,7.56
2022-11-13T21:04:07.554Z,7.55
2022-11-13T21:06:53.115Z,7.63
2022-11-13T21:09:38.484Z,7.43
2022-11-13T21:12:24.194Z,7.38
2022-11-13T21:15:10.177Z,7.51
2022-11-13T21:17:55.929Z,7.35
2022-11-13T21:20:41.710Z,7.64
2022-11-13T21:23:29.537Z,7.32
2022-11-13T21:26:15.575Z,7.35
2022-11-13T21:29:04.178Z,7.10
2022-11-13T21:31:49.804Z,7.14
2022-11-13T21:34:35.129Z,7.15
2022-11-13T21:37:20.644Z,7.56
2022-11-13T21:40:08.060Z,7.38
2022-11-13T21:42:54.113Z,7.25
2022-11-13T21:45:40.056Z,7.29
2022-11-13T21:48:29.250Z,6.91
2022-11-13T21:51:18.293Z,6.44
2022-11-13T21:54:04.751Z,6.62
2022-11-13T21:56:50.416Z,6.94
2022-11-13T21:59:36.134Z,7.02
2022-11-13T22:02:22.024Z,6.87
2022-11-13T22:05:08.053Z,7.04
2022-11-13T22:07:53.353Z,7.16
2022-11-13T22:10:38.971Z,6.91
2022-11-13T22:13:24.492Z,6.81
2022-11-13T22:16:12.291Z,6.94
2022-11-13T22:19:01.196Z,6.92
2022-11-13T22:21:47.705Z,6.84
2022-11-13T22:24:36.454Z,6.65
2022-11-13T22:27:22.087Z,6.66
2022-11-13T22:30:08.399Z,6.72
2022-11-13T22:32:54.337Z,6.63
2022-11-13T22:35:39.769Z,6.47
2022-11-13T22:38:25.169Z,6.55
2022-11-13T22:41:24.341Z,6.38
2022-11-13T22:44:12.692Z,6.31
2022-11-13T22:46:58.456Z,6.41
2022-11-13T22:49:45.164Z,6.15
2022-11-13T22:52:30.592Z,5.96
2022-11-13T22:55:16.346Z,5.97
2022-11-13T22:58:01.863Z,5.91
2022-11-13T23:00:47.268Z,5.80
2022-11-13T23:03:33.014Z,5.75
2022-11-13T23:06:21.794Z,5.64
2022-11-13T23:09:07.185Z,5.61
2022-11-13T23:11:53.012Z,5.55
2022-11-13T23:14:38.539Z,5.45
2022-11-13T23:17:24.020Z,5.36
2022-11-13T23:20:09.955Z,5.28
2022-11-13T23:22:55.443Z,5.22
2022-11-13T23:25:41.021Z,5.24
2022-11-13T23:28:27.627Z,5.36
2022-11-13T23:31:13.980Z,5.28
2022-11-13T23:33:59.712Z,5.22
2022-11-13T23:36:45.052Z,5.21
2022-11-13T23:39:30.779Z,5.28
2022-11-13T23:42:33.026Z,5.09
2022-11-13T23:45:22.254Z,5.17
2022-11-13T23:48:08.001Z,5.06
2022-11-13T23:50:53.908Z,5.15
2022-11-13T23:53:39.261Z,5.04
2022-11-13T23:56:24.784Z,5.00
2022-11-13T23:59:10.468Z,4.92
